Time;durP1;ratioP1;P1;durP2;ratioP2;P2;SDS_P1;SDS_P2;PMS_P1;PMS_P2;Temp;Humidity;BMP_temperature;BMP_pressure;BME280_temperature;BME280_humidity;BME280_pressure;Samples;Min_cycle;Max_cycle;Signal;HPM_P1;HPM_P2
2020/12/01 00:00:35;;;;;;;42.10;18.45;;;2.20;99.90;;;;;;5026411;28;20037;-83
2020/12/01 00:03:00;;;;;;;45.08;18.38;;;2.20;99.90;;;;;;5026493;28;20068;-82
2020/12/01 00:05:26;;;;;;;42.75;18.33;;;2.20;99.90;;;;;;5043730;28;20038;-82
2020/12/01 00:07:52;;;;;;;48.53;18.27;;;2.20;99.90;;;;;;5027145;28;20056;-82
2020/12/01 00:10:19;;;;;;;39.60;18.40;;;2.30;99.90;;;;;;5032480;28;20061;-83
2020/12/01 00:12:46;;;;;;;47.80;18.42;;;2.20;99.90;;;;;;5037409;28;20056;-83
2020/12/01 00:15:14;;;;;;;37.95;17.52;;;2.20;99.90;;;;;;5042041;28;20065;-83
2020/12/01 00:17:40;;;;;;;44.88;18.65;;;2.20;99.90;;;;;;5053330;28;20206;-84
2020/12/01 00:20:08;;;;;;;48.13;19.08;;;2.30;99.90;;;;;;5030798;28;20118;-84
2020/12/01 00:22:33;;;;;;;39.22;18.75;;;2.30;99.90;;;;;;5027869;28;20108;-84
2020/12/01 00:25:00;;;;;;;48.22;20.23;;;2.20;99.90;;;;;;5027735;28;20053;-83
2020/12/01 00:27:25;;;;;;;45.08;18.48;;;2.20;99.90;;;;;;5031596;28;20041;-83
2020/12/01 00:29:51;;;;;;;44.97;20.77;;;2.20;99.90;;;;;;5030243;28;20508;-83
2020/12/01 00:32:17;;;;;;;43.75;19.55;;;2.20;99.90;;;;;;5024974;28;20133;-84
2020/12/01 00:34:43;;;;;;;42.90;20.42;;;2.20;99.90;;;;;;5017892;28;20057;-84
2020/12/01 00:37:08;;;;;;;49.60;19.98;;;2.20;99.90;;;;;;5036769;28;20038;-84
2020/12/01 00:39:34;;;;;;;45.85;19.45;;;2.10;99.90;;;;;;5024873;28;20095;-85
2020/12/01 00:42:00;;;;;;;49.13;20.17;;;2.10;99.90;;;;;;5034111;28;20057;-89
2020/12/01 00:44:25;;;;;;;51.13;21.95;;;2.10;99.90;;;;;;5029850;28;20052;-87
2020/12/01 00:46:51;;;;;;;50.88;20.08;;;2.10;99.90;;;;;;5025776;28;20099;-89
2020/12/01 00:49:17;;;;;;;49.10;21.55;;;2.10;99.90;;;;;;5022330;28;20041;-89
2020/12/01 00:51:43;;;;;;;49.15;19.70;;;2.10;99.90;;;;;;5027239;28;20052;-86
2020/12/01 00:54:09;;;;;;;56.10;22.00;;;2.10;99.90;;;;;;5031445;28;20090;-90
2020/12/01 00:56:34;;;;;;;48.30;21.30;;;2.00;99.90;;;;;;5039128;28;20571;-86
2020/12/01 00:59:00;;;;;;;53.05;20.70;;;2.00;99.90;;;;;;5044029;28;20041;-84
2020/12/01 01:01:27;;;;;;;55.80;20.05;;;2.00;99.90;;;;;;5042936;28;20045;-84
2020/12/01 01:03:53;;;;;;;47.47;21.10;;;2.00;99.90;;;;;;5034087;28;20071;-84
2020/12/01 01:06:18;;;;;;;54.88;22.15;;;2.00;99.90;;;;;;5020623;28;20061;-81
2020/12/01 01:08:44;;;;;;;54.10;22.13;;;2.00;99.90;;;;;;5027261;28;20056;-82
2020/12/01 01:11:10;;;;;;;50.00;21.25;;;2.00;99.90;;;;;;5030770;28;20037;-81
2020/12/01 01:13:37;;;;;;;56.55;21.85;;;2.00;99.90;;;;;;5031998;28;20052;-82
2020/12/01 01:16:04;;;;;;;49.85;20.45;;;2.00;99.90;;;;;;5028696;28;20079;-83
2020/12/01 01:18:30;;;;;;;48.58;21.38;;;2.00;99.90;;;;;;5027770;28;20734;-84
2020/12/01 01:20:55;;;;;;;52.28;22.60;;;2.00;99.90;;;;;;5030347;28;20037;-83
2020/12/01 01:23:21;;;;;;;52.38;21.00;;;2.00;99.90;;;;;;5028009;28;20517;-83
2020/12/01 01:25:47;;;;;;;49.95;21.50;;;2.00;99.90;;;;;;5025510;28;20045;-83
2020/12/01 01:28:12;;;;;;;55.75;21.83;;;2.00;99.90;;;;;;5023420;28;20048;-81
2020/12/01 01:30:40;;;;;;;50.97;21.00;;;2.10;99.90;;;;;;5027184;28;20037;-82
2020/12/01 01:33:07;;;;;;;55.92;22.45;;;2.10;99.90;;;;;;5026612;28;20044;-82
2020/12/01 01:35:34;;;;;;;56.45;23.30;;;2.10;99.90;;;;;;5026038;28;20160;-81
2020/12/01 01:38:04;;;;;;;56.83;22.70;;;2.10;99.90;;;;;;5023490;28;20045;-81
2020/12/01 01:40:30;;;;;;;54.58;21.15;;;2.10;99.90;;;;;;5024848;28;20037;-82
2020/12/01 01:42:58;;;;;;;60.70;24.23;;;2.10;99.90;;;;;;5026189;28;20038;-83
2020/12/01 01:45:38;;;;;;;53.30;22.45;;;2.10;99.90;;;;;;5033955;28;20044;-82
2020/12/01 01:48:14;;;;;;;52.40;21.38;;;2.10;99.90;;;;;;5022110;28;20038;-83
2020/12/01 01:50:40;;;;;;;50.42;20.63;;;2.10;99.90;;;;;;5026365;28;20044;-84
2020/12/01 01:53:05;;;;;;;54.30;22.08;;;2.20;99.90;;;;;;5025568;28;20033;-84
2020/12/01 01:55:31;;;;;;;54.90;22.80;;;2.20;99.90;;;;;;5026899;28;20033;-83
2020/12/01 01:58:02;;;;;;;51.25;21.20;;;2.10;99.90;;;;;;5034701;28;20046;-84
2020/12/01 02:03:42;;;;;;;54.00;21.92;;;2.20;99.90;;;;;;5028063;28;20143;-84
2020/12/01 02:06:36;;;;;;;56.83;22.73;;;2.20;99.90;;;;;;5027803;28;20037;-83
2020/12/01 02:09:07;;;;;;;62.05;22.83;;;2.20;99.90;;;;;;5035398;28;20049;-83
2020/12/01 02:11:34;;;;;;;43.90;19.65;;;2.20;99.90;;;;;;5042815;28;20624;-84
2020/12/01 02:14:19;;;;;;;49.13;21.20;;;2.30;99.90;;;;;;5038540;28;20068;-83
2020/12/01 02:16:50;;;;;;;56.78;22.35;;;2.30;99.90;;;;;;5027775;28;20037;-84
2020/12/01 02:19:22;;;;;;;57.67;22.35;;;2.30;99.90;;;;;;5029840;28;20141;-83
2020/12/01 02:21:48;;;;;;;51.50;19.77;;;2.30;99.90;;;;;;5030850;28;20040;-83
2020/12/01 02:24:17;;;;;;;47.65;19.58;;;2.30;99.90;;;;;;5030758;28;20570;-84
2020/12/01 02:26:49;;;;;;;46.47;19.52;;;2.30;99.90;;;;;;5027821;28;20689;-84
2020/12/01 02:29:18;;;;;;;50.70;20.90;;;2.30;99.90;;;;;;5038260;28;20037;-83
2020/12/01 02:31:44;;;;;;;52.60;20.90;;;2.40;99.90;;;;;;5046602;28;20093;-83
2020/12/01 02:34:13;;;;;;;49.38;22.13;;;2.30;99.90;;;;;;5043816;28;20545;-84
2020/12/01 02:36:39;;;;;;;51.08;20.55;;;2.40;99.90;;;;;;5036790;28;20029;-83
2020/12/01 02:39:06;;;;;;;52.53;21.15;;;2.40;99.90;;;;;;5040107;28;20060;-85
2020/12/01 02:41:32;;;;;;;52.80;20.25;;;2.30;99.90;;;;;;5028691;28;20037;-85
2020/12/01 02:43:58;;;;;;;47.80;20.00;;;2.30;99.90;;;;;;5041417;28;20064;-84
2020/12/01 02:46:26;;;;;;;48.80;20.27;;;2.30;99.90;;;;;;5040665;28;20302;-85
2020/12/01 02:48:51;;;;;;;58.35;21.63;;;2.20;99.90;;;;;;5034734;28;20163;-85
2020/12/01 02:51:17;;;;;;;43.55;18.98;;;2.30;99.90;;;;;;5032756;28;20033;-86
2020/12/01 02:53:42;;;;;;;49.17;20.70;;;2.30;99.90;;;;;;5025570;28;20398;-84
2020/12/01 02:56:08;;;;;;;46.53;20.55;;;2.20;99.90;;;;;;5023769;28;20399;-83
2020/12/01 02:58:33;;;;;;;49.10;20.02;;;2.20;99.90;;;;;;5020827;28;20045;-83
2020/12/01 03:00:59;;;;;;;58.00;20.55;;;2.20;99.90;;;;;;5030380;28;20042;-83
2020/12/01 03:03:24;;;;;;;46.25;19.73;;;2.20;99.90;;;;;;5040726;28;20057;-83
2020/12/01 03:05:50;;;;;;;51.53;20.60;;;2.20;99.90;;;;;;5027329;28;20295;-82
2020/12/01 03:08:15;;;;;;;48.63;19.73;;;2.20;99.90;;;;;;5027707;28;20042;-82
2020/12/01 03:10:41;;;;;;;49.80;20.60;;;2.20;99.90;;;;;;5028626;28;20461;-82
2020/12/01 03:13:07;;;;;;;53.55;21.42;;;2.20;99.90;;;;;;5023999;28;20034;-82
2020/12/01 03:15:32;;;;;;;43.67;20.40;;;2.20;99.90;;;;;;5029160;28;20038;-82
2020/12/01 03:17:58;;;;;;;51.17;20.75;;;2.20;99.90;;;;;;5020924;28;20072;-82
2020/12/01 03:20:23;;;;;;;49.80;19.67;;;2.20;99.90;;;;;;5027960;28;20556;-83
2020/12/01 03:22:49;;;;;;;41.53;17.55;;;2.20;99.90;;;;;;5023567;28;20041;-82
2020/12/01 03:25:14;;;;;;;45.13;19.38;;;2.30;99.90;;;;;;5021778;28;20071;-82
2020/12/01 03:27:40;;;;;;;45.35;18.20;;;2.30;99.90;;;;;;5022783;28;20041;-83
2020/12/01 03:30:06;;;;;;;41.85;17.45;;;2.40;99.90;;;;;;5033016;28;20201;-82
2020/12/01 03:32:32;;;;;;;45.95;18.00;;;2.40;99.90;;;;;;5035110;28;20511;-82
2020/12/01 03:34:58;;;;;;;45.90;17.80;;;2.40;99.90;;;;;;5026692;28;20075;-81
2020/12/01 03:37:24;;;;;;;44.65;17.90;;;2.40;99.90;;;;;;5024630;28;20052;-82
2020/12/01 03:39:49;;;;;;;44.45;17.65;;;2.40;99.90;;;;;;5019840;28;20115;-82
2020/12/01 03:42:15;;;;;;;49.08;18.60;;;2.40;99.90;;;;;;5028483;28;20061;-84
2020/12/01 03:44:40;;;;;;;46.65;17.52;;;2.40;99.90;;;;;;5027693;28;20038;-84
2020/12/01 03:47:06;;;;;;;43.63;18.02;;;2.50;99.90;;;;;;5027432;28;20555;-81
2020/12/01 03:49:32;;;;;;;44.00;18.63;;;2.50;99.90;;;;;;5026055;28;20060;-83
2020/12/01 03:51:57;;;;;;;46.88;19.30;;;2.50;99.90;;;;;;5022236;28;20037;-83
2020/12/01 03:54:23;;;;;;;44.50;18.30;;;2.50;99.90;;;;;;5031784;28;20044;-83
2020/12/01 03:56:48;;;;;;;45.70;18.60;;;2.70;99.90;;;;;;5039831;28;20076;-84
2020/12/01 03:59:14;;;;;;;43.20;17.15;;;2.50;99.90;;;;;;5037171;28;20049;-83
2020/12/01 04:01:40;;;;;;;44.50;18.08;;;2.60;99.90;;;;;;5028031;28;20046;-83
2020/12/01 04:04:05;;;;;;;46.58;19.42;;;2.60;99.90;;;;;;5023545;28;20056;-84
2020/12/01 04:06:31;;;;;;;47.33;18.63;;;2.60;99.90;;;;;;5023282;28;20061;-83
2020/12/01 04:08:56;;;;;;;44.90;18.83;;;2.70;99.90;;;;;;5022024;28;20068;-83
2020/12/01 04:11:24;;;;;;;50.20;18.55;;;2.70;99.90;;;;;;5028260;28;20045;-83
2020/12/01 04:13:51;;;;;;;43.50;17.45;;;2.70;99.90;;;;;;5024175;28;20111;-83
2020/12/01 04:16:16;;;;;;;49.35;17.40;;;2.70;99.90;;;;;;5020053;28;20041;-83
2020/12/01 04:18:42;;;;;;;44.38;17.88;;;2.70;99.90;;;;;;5023093;28;20033;-82
2020/12/01 04:21:07;;;;;;;38.67;16.25;;;2.70;99.90;;;;;;5022948;28;20048;-82
2020/12/01 04:23:33;;;;;;;39.58;17.05;;;2.70;99.90;;;;;;5026178;28;20490;-81
2020/12/01 04:25:59;;;;;;;41.80;17.70;;;2.80;99.90;;;;;;5019239;28;20112;-82
2020/12/01 04:28:24;;;;;;;46.17;16.52;;;2.80;99.90;;;;;;5022370;28;20493;-80
2020/12/01 04:30:50;;;;;;;34.45;16.05;;;2.80;99.90;;;;;;5027597;28;20080;-82
2020/12/01 04:33:15;;;;;;;46.53;17.83;;;2.80;99.90;;;;;;5034719;28;20115;-82
2020/12/01 04:35:41;;;;;;;41.97;16.00;;;2.80;99.90;;;;;;5025372;28;20049;-82
2020/12/01 04:38:06;;;;;;;41.03;17.77;;;2.90;99.90;;;;;;5024416;28;20360;-83
2020/12/01 04:40:36;;;;;;;40.92;16.33;;;2.80;99.90;;;;;;5028488;28;20041;-82
2020/12/01 04:43:13;;;;;;;47.20;18.35;;;2.80;99.90;;;;;;5026896;28;20038;-82
2020/12/01 04:45:41;;;;;;;41.63;17.05;;;2.80;99.90;;;;;;5035888;28;20044;-82
2020/12/01 04:48:30;;;;;;;41.88;16.95;;;2.90;99.90;;;;;;5031028;28;20466;-83
2020/12/01 04:51:00;;;;;;;43.38;16.90;;;2.90;99.90;;;;;;5028658;28;20342;-83
2020/12/01 04:53:38;;;;;;;47.97;18.08;;;2.90;99.90;;;;;;5029659;28;20034;-83
2020/12/01 04:56:34;;;;;;;47.13;18.67;;;2.90;99.90;;;;;;5021643;28;20433;-82
2020/12/01 04:59:36;;;;;;;48.97;18.20;;;2.80;99.90;;;;;;5032150;28;20522;-82
2020/12/01 05:02:26;;;;;;;36.35;17.17;;;2.80;99.90;;;;;;5034290;28;20045;-83
2020/12/01 05:05:25;;;;;;;49.25;17.45;;;2.90;99.90;;;;;;5029242;28;20087;-81
2020/12/01 05:08:27;;;;;;;45.08;17.17;;;2.90;99.90;;;;;;4993813;28;20049;-82
2020/12/01 05:10:56;;;;;;;39.50;17.48;;;2.80;99.90;;;;;;5032580;28;20113;-83
2020/12/01 05:13:27;;;;;;;38.35;16.67;;;2.80;99.90;;;;;;5033637;28;20029;-82
2020/12/01 05:16:00;;;;;;;36.38;16.33;;;2.80;99.90;;;;;;5035587;28;20045;-82
2020/12/01 05:18:32;;;;;;;34.25;14.57;;;2.90;99.90;;;;;;5027369;28;20111;-83
2020/12/01 05:21:04;;;;;;;35.20;15.35;;;2.90;99.90;;;;;;5023805;28;20498;-82
2020/12/01 05:23:35;;;;;;;36.17;15.60;;;2.90;99.90;;;;;;5040425;28;20140;-82
2020/12/01 05:26:07;;;;;;;33.88;14.75;;;3.00;99.90;;;;;;5021949;28;20160;-81
2020/12/01 05:29:02;;;;;;;35.65;15.18;;;2.90;99.90;;;;;;5025030;28;20228;-82
2020/12/01 05:31:39;;;;;;;;;;;2.90;99.90;;;;;;5021824;28;20057;-82
2020/12/01 05:34:07;;;;;;;33.95;13.88;;;2.90;99.90;;;;;;5040217;28;19913;-82
2020/12/01 05:36:38;;;;;;;33.08;14.20;;;3.00;99.90;;;;;;5026897;28;20045;-82
2020/12/01 05:39:15;;;;;;;36.67;15.38;;;2.90;99.90;;;;;;5024086;28;20539;-83
2020/12/01 05:41:44;;;;;;;39.03;15.40;;;3.00;99.90;;;;;;5027166;28;20386;-83
2020/12/01 05:44:26;;;;;;;37.20;13.90;;;3.00;99.90;;;;;;5024785;28;20060;-83
2020/12/01 05:47:04;;;;;;;34.42;15.23;;;2.90;99.90;;;;;;5020010;28;20119;-83
2020/12/01 05:49:49;;;;;;;34.90;14.40;;;2.90;99.90;;;;;;5026433;28;20127;-82
2020/12/01 05:52:31;;;;;;;31.50;13.80;;;2.90;99.90;;;;;;5025611;28;20038;-82
2020/12/01 05:55:20;;;;;;;36.55;13.90;;;2.90;99.90;;;;;;5019961;28;20050;-82
2020/12/01 05:57:57;;;;;;;37.25;14.73;;;3.00;99.90;;;;;;5021847;28;20033;-83
2020/12/01 06:00:29;;;;;;;30.73;14.57;;;3.00;99.90;;;;;;5027199;28;20044;-82
2020/12/01 06:03:06;;;;;;;29.73;13.27;;;2.90;99.90;;;;;;5027990;28;20033;-81
2020/12/01 06:07:47;;;;;;;28.35;14.18;;;3.00;99.90;;;;;;5084131;27;20401;-83
2020/12/01 06:10:28;;;;;;;37.55;14.85;;;3.00;99.90;;;;;;5053765;28;20029;-81
2020/12/01 06:13:21;;;;;;;35.08;14.80;;;3.00;99.90;;;;;;5058344;28;20048;-82
2020/12/01 06:16:08;;;;;;;43.20;14.95;;;3.00;99.90;;;;;;5060946;28;20045;-81
2020/12/01 06:18:59;;;;;;;33.53;14.23;;;3.00;99.90;;;;;;5043845;28;20036;-83
2020/12/01 06:21:46;;;;;;;36.10;15.02;;;3.10;99.90;;;;;;5045997;28;20101;-86
2020/12/01 06:24:55;;;;;;;32.78;14.02;;;3.00;99.90;;;;;;5026624;28;20041;-86
2020/12/01 06:27:54;;;;;;;35.22;14.48;;;3.00;99.90;;;;;;5036141;28;20054;-87
2020/12/01 06:30:35;;;;;;;30.52;13.57;;;3.10;99.90;;;;;;5048452;28;20042;-88
2020/12/01 06:33:15;;;;;;;34.75;14.27;;;3.00;99.90;;;;;;5050628;28;20045;-90
2020/12/01 06:36:13;;;;;;;38.17;14.82;;;3.00;99.90;;;;;;5050864;28;20025;-88
2020/12/01 06:38:42;;;;;;;32.30;14.50;;;3.00;99.90;;;;;;5072878;28;20039;-89
2020/12/01 06:41:13;;;;;;;38.20;14.43;;;3.00;99.90;;;;;;5071809;28;20028;-91
2020/12/01 06:43:42;;;;;;;34.75;14.38;;;3.00;99.90;;;;;;5073821;28;20037;-88
2020/12/01 06:46:59;;;;;;;36.10;15.15;;;3.00;99.90;;;;;;5052144;28;20049;-82
2020/12/01 06:49:32;;;;;;;37.28;14.85;;;3.10;99.90;;;;;;5003952;28;20033;-83
2020/12/01 06:52:12;;;;;;;31.63;14.18;;;3.00;99.90;;;;;;5034661;28;20034;-86
2020/12/01 06:54:55;;;;;;;39.13;14.77;;;3.10;99.90;;;;;;5052103;28;20049;-85
2020/12/01 06:57:36;;;;;;;35.40;13.93;;;3.10;99.90;;;;;;5056250;28;20118;-86
2020/12/01 07:00:05;;;;;;;38.40;14.40;;;3.10;99.90;;;;;;5059021;28;20045;-85
2020/12/01 07:02:34;;;;;;;41.70;14.90;;;3.10;99.90;;;;;;5044199;28;20124;-86
2020/12/01 07:05:04;;;;;;;33.50;15.13;;;3.10;99.90;;;;;;5043417;28;20041;-88
2020/12/01 07:07:32;;;;;;;37.90;15.48;;;3.10;99.90;;;;;;5044175;28;20041;-88
2020/12/01 07:09:58;;;;;;;43.17;15.68;;;3.10;99.90;;;;;;5051558;28;20033;-87
2020/12/01 07:12:26;;;;;;;39.53;16.05;;;3.10;99.90;;;;;;5038535;28;20088;-86
2020/12/01 07:15:07;;;;;;;43.05;16.58;;;3.10;99.90;;;;;;5041517;28;20041;-87
2020/12/01 07:17:35;;;;;;;39.42;16.42;;;3.10;99.90;;;;;;5032280;28;20084;-88
2020/12/01 07:20:38;;;;;;;47.28;17.25;;;3.10;99.90;;;;;;5028429;28;20096;-88
2020/12/01 07:23:26;;;;;;;44.72;18.15;;;3.10;99.90;;;;;;5039856;28;20032;-85
2020/12/01 07:26:16;;;;;;;44.00;17.70;;;3.10;99.90;;;;;;5041898;28;20037;-85
2020/12/01 07:29:01;;;;;;;48.55;17.90;;;3.10;99.90;;;;;;5051365;28;20084;-85
2020/12/01 07:31:33;;;;;;;47.95;16.67;;;3.10;99.90;;;;;;5039413;28;20029;-87
2020/12/01 07:34:17;;;;;;;40.15;17.17;;;3.20;99.90;;;;;;5043625;28;20029;-87
2020/12/01 07:36:46;;;;;;;39.85;16.85;;;3.20;99.90;;;;;;5021407;28;20026;-87
2020/12/01 07:39:17;;;;;;;44.38;16.83;;;3.20;99.90;;;;;;5020002;28;20057;-87
2020/12/01 07:41:51;;;;;;;50.90;17.83;;;3.20;99.90;;;;;;5029570;28;20045;-87
2020/12/01 07:44:20;;;;;;;46.22;18.45;;;3.20;99.90;;;;;;5018809;28;21039;-87
2020/12/01 07:46:58;;;;;;;40.92;17.42;;;3.20;99.90;;;;;;5018667;28;20042;-87
2020/12/01 07:49:27;;;;;;;46.88;18.27;;;3.30;99.90;;;;;;5017359;28;20052;-87
2020/12/01 07:52:02;;;;;;;52.78;17.52;;;3.30;99.90;;;;;;5014275;28;20037;-89
2020/12/01 07:54:28;;;;;;;52.30;18.15;;;3.30;99.90;;;;;;5028110;28;20053;-87
2020/12/01 07:56:53;;;;;;;45.38;17.48;;;3.30;99.90;;;;;;5034514;28;20052;-88
2020/12/01 07:59:19;;;;;;;48.92;19.60;;;3.30;99.90;;;;;;5030706;28;20209;-87
2020/12/01 08:01:45;;;;;;;48.33;19.23;;;3.30;99.90;;;;;;5019431;28;20042;-87
2020/12/01 08:04:17;;;;;;;41.33;17.83;;;3.30;99.90;;;;;;5017496;28;20053;-88
2020/12/01 08:06:43;;;;;;;40.50;16.10;;;3.30;99.90;;;;;;5017383;28;20154;-87
2020/12/01 08:09:31;;;;;;;35.42;15.75;;;3.30;99.90;;;;;;5018631;28;20068;-88
2020/12/01 08:12:13;;;;;;;40.53;15.02;;;3.40;99.90;;;;;;5019786;28;20066;-88
2020/12/01 08:14:40;;;;;;;38.53;14.25;;;3.30;99.90;;;;;;5033001;28;20038;-88
2020/12/01 08:17:14;;;;;;;39.00;15.57;;;3.30;99.90;;;;;;5037883;28;20033;-88
2020/12/01 08:19:40;;;;;;;39.60;16.17;;;3.40;99.90;;;;;;5040721;28;20492;-87
2020/12/01 08:22:09;;;;;;;37.05;14.23;;;3.30;99.90;;;;;;5030380;28;20034;-87
2020/12/01 08:24:39;;;;;;;32.58;13.82;;;3.40;99.90;;;;;;5045175;28;20041;-88
2020/12/01 08:27:17;;;;;;;47.67;16.65;;;3.40;99.90;;;;;;5044494;28;20072;-86
2020/12/01 08:29:46;;;;;;;46.95;18.00;;;3.40;99.90;;;;;;5045292;28;20057;-87
2020/12/01 08:32:40;;;;;;;43.55;19.92;;;3.30;99.90;;;;;;5044350;28;20339;-89
2020/12/01 08:35:35;;;;;;;55.78;19.50;;;3.30;99.90;;;;;;5051045;28;20105;-87
2020/12/01 08:38:30;;;;;;;52.30;19.33;;;3.30;99.90;;;;;;5023260;28;20038;-88
2020/12/01 08:41:14;;;;;;;53.42;22.25;;;3.30;99.90;;;;;;5027344;28;20041;-88
2020/12/01 08:44:00;;;;;;;50.75;21.77;;;3.20;99.90;;;;;;5019958;28;20042;-87
2020/12/01 08:46:27;;;;;;;63.35;24.50;;;3.20;99.90;;;;;;5020758;28;20045;-87
2020/12/01 08:49:06;;;;;;;57.25;22.83;;;3.20;99.90;;;;;;5022720;28;20033;-86
2020/12/01 08:51:52;;;;;;;63.22;24.90;;;3.10;99.90;;;;;;5036587;28;20042;-85
2020/12/01 08:54:25;;;;;;;65.53;24.05;;;3.10;99.90;;;;;;5041334;28;20037;-89
2020/12/01 08:57:08;;;;;;;61.80;23.55;;;3.10;99.90;;;;;;5042053;28;20085;-89
2020/12/01 09:00:14;;;;;;;59.17;22.50;;;3.10;99.90;;;;;;5047676;28;20037;-91
2020/12/01 09:02:45;;;;;;;51.10;21.70;;;3.20;99.90;;;;;;5000046;28;20042;-86
2020/12/01 09:05:22;;;;;;;60.33;23.33;;;3.20;99.90;;;;;;4999522;28;20101;-85
2020/12/01 09:07:52;;;;;;;51.72;21.30;;;3.20;99.90;;;;;;5026207;28;20047;-86
2020/12/01 09:10:29;;;;;;;55.25;21.70;;;3.20;99.90;;;;;;5041033;28;20033;-86
2020/12/01 09:18:39;;;;;;;49.45;20.75;;;3.30;99.90;;;;;;5048888;28;20247;-88
2020/12/01 09:21:52;;;;;;;56.40;18.75;;;3.30;99.90;;;;;;5043382;28;20533;-86
2020/12/01 09:24:03;;;;;;;50.05;18.55;;;3.30;99.90;;;;;;5025454;28;20034;-86
2020/12/01 09:26:29;;;;;;;53.70;17.77;;;3.30;99.90;;;;;;5037196;28;20038;-86
2020/12/01 09:28:55;;;;;;;44.30;16.95;;;3.30;99.90;;;;;;5046680;28;20096;-86
2020/12/01 09:31:23;;;;;;;42.60;17.20;;;3.30;99.90;;;;;;5043966;28;20061;-85
2020/12/01 09:33:53;;;;;;;48.72;18.70;;;3.30;99.90;;;;;;5040776;28;20048;-85
2020/12/01 09:36:21;;;;;;;49.67;18.00;;;3.30;99.90;;;;;;5026798;28;20040;-86
2020/12/01 09:38:46;;;;;;;41.50;16.48;;;3.30;99.90;;;;;;5025397;28;20045;-86
2020/12/01 09:41:18;;;;;;;43.00;17.88;;;3.40;99.90;;;;;;5019920;28;20018;-85
2020/12/01 09:43:50;;;;;;;37.22;17.40;;;3.30;99.90;;;;;;5021215;28;20067;-85
2020/12/01 09:46:21;;;;;;;45.10;18.55;;;3.30;99.90;;;;;;5017002;28;20045;-83
2020/12/01 09:48:47;;;;;;;40.00;17.80;;;3.30;99.90;;;;;;5017732;28;20108;-84
2020/12/01 09:51:14;;;;;;;47.10;16.73;;;3.40;99.90;;;;;;5017260;28;20037;-84
2020/12/01 09:53:51;;;;;;;33.88;15.38;;;3.40;99.90;;;;;;5019233;28;20074;-84
2020/12/01 09:59:29;;;;;;;36.30;15.73;;;3.40;99.90;;;;;;5023912;28;20049;-84
2020/12/01 10:10:03;;;;;;;34.67;14.15;;;3.60;99.90;;;;;;5048053;28;20170;-84
2020/12/01 10:12:33;;;;;;;31.35;13.27;;;3.60;99.90;;;;;;5036937;28;20038;-84
2020/12/01 10:15:32;;;;;;;31.13;13.60;;;3.50;99.90;;;;;;5032060;28;20041;-83
2020/12/01 10:36:38;;;;;;;27.00;12.50;;;3.60;99.90;;;;;;5021672;28;20038;-83
2020/12/01 10:39:06;;;;;;;26.50;12.18;;;3.60;99.90;;;;;;5025110;28;20113;-86
2020/12/01 10:41:32;;;;;;;34.78;12.77;;;3.60;99.90;;;;;;5020122;28;20046;-84
2020/12/01 10:43:58;;;;;;;32.78;12.65;;;3.60;99.90;;;;;;5021554;28;20025;-86
2020/12/01 10:46:24;;;;;;;26.70;10.52;;;3.60;99.90;;;;;;5015790;28;20168;-85
2020/12/01 10:48:50;;;;;;;26.40;9.55;;;3.70;99.90;;;;;;5018604;28;20038;-87
2020/12/01 10:51:16;;;;;;;21.77;9.35;;;3.60;99.90;;;;;;5026391;28;20046;-86
2020/12/01 10:53:41;;;;;;;24.02;9.15;;;3.60;99.90;;;;;;5023490;28;20046;-86
2020/12/01 10:56:07;;;;;;;21.45;9.05;;;3.60;99.90;;;;;;5022553;28;20046;-83
2020/12/01 10:58:32;;;;;;;14.45;7.38;;;3.60;99.90;;;;;;5019760;28;20042;-86
2020/12/01 11:00:58;;;;;;;15.85;8.10;;;3.50;99.90;;;;;;5025984;28;20064;-87
2020/12/01 11:03:25;;;;;;;16.60;8.15;;;3.40;99.90;;;;;;5027390;28;20040;-84
2020/12/01 11:05:50;;;;;;;20.17;9.27;;;3.30;99.90;;;;;;5041878;28;20049;-85
2020/12/01 11:08:16;;;;;;;18.63;8.18;;;3.30;99.90;;;;;;5053182;28;20025;-84
2020/12/01 11:10:42;;;;;;;18.50;7.60;;;3.40;99.90;;;;;;5050243;28;20048;-85
2020/12/01 11:13:09;;;;;;;18.10;8.10;;;3.40;99.90;;;;;;5050041;28;20044;-86
2020/12/01 11:15:35;;;;;;;20.23;7.40;;;3.40;99.90;;;;;;5039446;28;20735;-84
2020/12/01 11:18:00;;;;;;;17.23;7.65;;;3.40;99.90;;;;;;5044355;28;21974;-84
2020/12/01 11:20:26;;;;;;;15.05;6.43;;;3.50;99.90;;;;;;5038168;28;20044;-85
2020/12/01 11:22:52;;;;;;;19.38;8.15;;;3.50;99.90;;;;;;5039905;28;20183;-84
2020/12/01 11:25:19;;;;;;;15.77;7.65;;;3.60;99.90;;;;;;5040546;28;20029;-85
2020/12/01 11:27:44;;;;;;;22.02;7.90;;;3.50;99.90;;;;;;5041440;28;20422;-85
2020/12/01 11:30:10;;;;;;;15.05;7.72;;;3.60;99.90;;;;;;5034286;28;20109;-87
2020/12/01 11:32:36;;;;;;;15.10;7.28;;;3.60;99.90;;;;;;5041807;28;20404;-89
2020/12/01 11:35:04;;;;;;;23.13;8.20;;;3.60;99.90;;;;;;5037086;28;20244;-87
2020/12/01 11:37:29;;;;;;;18.92;7.88;;;3.60;99.90;;;;;;5038937;28;20033;-87
2020/12/01 11:39:55;;;;;;;22.10;7.78;;;3.60;99.90;;;;;;5049646;28;20033;-88
2020/12/01 11:42:24;;;;;;;13.80;7.05;;;3.60;99.90;;;;;;5046368;28;20034;-88
2020/12/01 11:44:50;;;;;;;13.48;6.30;;;3.50;99.90;;;;;;5057283;28;20034;-88
2020/12/01 11:47:16;;;;;;;24.10;7.20;;;3.50;99.90;;;;;;5037041;28;20056;-90
2020/12/01 11:49:41;;;;;;;16.38;7.03;;;3.60;99.90;;;;;;5029374;28;20038;-89
2020/12/01 11:52:18;;;;;;;17.45;8.15;;;3.50;99.90;;;;;;5031085;28;20029;-87
2020/12/01 11:54:56;;;;;;;13.38;6.88;;;3.60;99.90;;;;;;5020778;28;20415;-85
2020/12/01 11:57:56;;;;;;;12.23;6.10;;;3.60;99.90;;;;;;5026936;28;20037;-84
2020/12/01 12:00:32;;;;;;;16.88;6.75;;;3.50;99.90;;;;;;5022552;28;20029;-85
2020/12/01 12:02:57;;;;;;;13.80;6.72;;;3.60;99.90;;;;;;5038511;28;20101;-86
2020/12/01 12:05:23;;;;;;;12.48;6.50;;;3.60;99.90;;;;;;5041904;28;20096;-87
2020/12/01 12:07:48;;;;;;;15.23;6.22;;;3.50;99.90;;;;;;5041240;28;20116;-87
2020/12/01 12:10:14;;;;;;;15.57;6.20;;;3.50;99.90;;;;;;5041964;28;20052;-87
2020/12/01 12:12:42;;;;;;;17.02;6.57;;;3.60;99.90;;;;;;5041246;28;20624;-88
2020/12/01 12:15:07;;;;;;;17.23;6.00;;;3.70;99.90;;;;;;5045728;28;20068;-85
2020/12/01 12:17:33;;;;;;;21.13;5.85;;;3.70;99.90;;;;;;5040373;28;20042;-87
2020/12/01 12:19:59;;;;;;;11.35;6.15;;;3.80;99.90;;;;;;5044518;28;20120;-85
2020/12/01 12:22:24;;;;;;;12.90;6.28;;;3.80;99.90;;;;;;5044426;28;20044;-86
2020/12/01 12:24:50;;;;;;;11.40;5.82;;;3.70;99.90;;;;;;5049133;28;20028;-86
2020/12/01 12:27:16;;;;;;;19.73;6.78;;;3.60;99.90;;;;;;5041290;28;20090;-87
2020/12/01 12:29:41;;;;;;;13.68;6.82;;;3.60;99.90;;;;;;5041934;28;20045;-83
2020/12/01 12:32:07;;;;;;;15.35;7.50;;;3.70;99.90;;;;;;5019798;28;20041;-83
2020/12/01 12:34:32;;;;;;;14.40;6.82;;;3.80;99.90;;;;;;5023066;28;20109;-82
2020/12/01 12:36:58;;;;;;;12.15;6.82;;;3.90;99.90;;;;;;5020742;28;20041;-84
2020/12/01 12:39:24;;;;;;;11.48;6.13;;;3.80;99.90;;;;;;5019997;28;20060;-83
2020/12/01 12:41:49;;;;;;;15.98;6.55;;;3.80;99.90;;;;;;5022403;28;20045;-84
2020/12/01 12:44:15;;;;;;;13.32;6.55;;;3.80;99.90;;;;;;5023056;28;20060;-85
2020/12/01 12:46:41;;;;;;;17.73;8.05;;;3.80;99.90;;;;;;5018689;28;20060;-84
2020/12/01 12:49:07;;;;;;;12.57;7.13;;;3.80;99.90;;;;;;5018830;28;20049;-87
2020/12/01 12:51:33;;;;;;;15.50;7.00;;;4.00;99.90;;;;;;5016705;28;20037;-86
2020/12/01 12:53:59;;;;;;;20.83;7.78;;;3.90;99.90;;;;;;5046849;28;20030;-85
2020/12/01 12:56:25;;;;;;;15.43;7.50;;;4.00;99.90;;;;;;5038399;28;20183;-83
2020/12/01 12:58:54;;;;;;;14.23;7.95;;;4.00;99.90;;;;;;5039768;28;20026;-86
2020/12/01 13:05:05;;;;;;;18.80;8.00;;;4.00;99.90;;;;;;4973187;28;20054;-86
2020/12/01 13:07:30;;;;;;;15.63;7.32;;;4.00;99.90;;;;;;5029230;23;20576;-80
2020/12/01 13:09:56;;;;;;;18.33;8.57;;;4.10;99.90;;;;;;5014146;28;20088;-78
2020/12/01 13:12:21;;;;;;;15.15;7.97;;;4.10;99.90;;;;;;5013630;28;20038;-79
2020/12/01 13:14:47;;;;;;;16.67;7.40;;;4.10;99.90;;;;;;5011692;28;20679;-79
2020/12/01 13:17:13;;;;;;;12.95;7.00;;;4.00;99.90;;;;;;5009322;28;20117;-78
2020/12/01 13:19:38;;;;;;;14.30;6.95;;;4.00;99.90;;;;;;5011749;28;20043;-78
2020/12/01 13:22:04;;;;;;;14.45;7.53;;;4.00;99.90;;;;;;5011668;28;20030;-78
2020/12/01 13:24:29;;;;;;;15.68;6.80;;;4.00;99.90;;;;;;5011692;28;20057;-78
2020/12/01 13:26:55;;;;;;;14.70;7.13;;;4.00;99.90;;;;;;5010051;28;20038;-77
2020/12/01 13:29:21;;;;;;;15.32;6.53;;;3.90;99.90;;;;;;5016342;28;20044;-78
2020/12/01 13:31:48;;;;;;;18.92;8.00;;;3.90;99.90;;;;;;5044564;28;20026;-78
2020/12/01 13:34:16;;;;;;;14.88;7.05;;;4.00;99.90;;;;;;5024884;28;20021;-77
2020/12/01 13:36:41;;;;;;;15.13;6.90;;;4.00;99.90;;;;;;5010161;28;20043;-78
2020/12/01 13:39:07;;;;;;;16.08;7.72;;;4.00;99.90;;;;;;5009311;28;20033;-78
2020/12/01 13:41:33;;;;;;;13.30;6.85;;;4.10;99.90;;;;;;5028077;28;20025;-79
2020/12/01 13:43:59;;;;;;;13.15;6.60;;;4.10;99.90;;;;;;5012985;28;20057;-78